Time;durP1;ratioP1;P1;durP2;ratioP2;P2;SDS_P1;SDS_P2;PMS_P1;PMS_P2;Temp;Humidity;BMP_temperature;BMP_pressure;BME280_temperature;BME280_humidity;BME280_pressure;Samples;Min_cycle;Max_cycle;Signal;HPM_P1;HPM_P2
2021/07/08 00:02:09;;;;;;;9.30;6.10;;;;;;;19.42;53.71;100013.19;5110115;28;20050;-68
2021/07/08 00:04:40;;;;;;;8.55;6.20;;;;;;;19.41;53.44;100017.78;5093466;28;20035;-68
2021/07/08 00:07:06;;;;;;;10.43;6.57;;;;;;;19.42;54.42;100019.38;5110234;28;20084;-68
2021/07/08 00:09:32;;;;;;;11.27;6.20;;;;;;;19.41;54.17;100022.31;5109974;28;20130;-68
2021/07/08 00:11:59;;;;;;;9.20;5.93;;;;;;;19.36;54.25;100022.38;5076174;28;20047;-68
2021/07/08 00:14:24;;;;;;;11.32;6.20;;;;;;;19.34;54.42;100029.91;5092603;28;20429;-68
2021/07/08 00:16:50;;;;;;;10.48;6.70;;;;;;;19.30;55.30;100029.69;5111480;28;20044;-68
2021/07/08 00:19:16;;;;;;;12.90;7.10;;;;;;;19.22;55.15;100028.38;5111014;28;20130;-68
2021/07/08 00:21:42;;;;;;;9.95;6.97;;;;;;;19.19;55.61;100030.81;5092902;28;20032;-68
2021/07/08 00:24:08;;;;;;;10.38;6.55;;;;;;;19.16;55.63;100034.06;5109708;28;20051;-68
2021/07/08 00:26:35;;;;;;;13.27;7.15;;;;;;;19.10;55.93;100030.59;5111252;28;20039;-69
2021/07/08 00:29:10;;;;;;;11.48;7.18;;;;;;;19.07;55.78;100031.16;5110947;28;20059;-68
2021/07/08 00:31:36;;;;;;;13.10;7.68;;;;;;;19.03;56.42;100040.84;5093176;28;20153;-69
2021/07/08 00:34:03;;;;;;;12.57;6.95;;;;;;;19.00;56.23;100033.34;5111101;28;20043;-69
2021/07/08 00:36:29;;;;;;;7.40;6.03;;;;;;;19.02;55.59;100036.56;5114837;28;20040;-68
2021/07/08 00:38:56;;;;;;;9.18;6.10;;;;;;;19.03;55.57;100035.47;5079791;28;20043;-67
2021/07/08 00:41:23;;;;;;;13.02;6.75;;;;;;;19.02;55.88;100040.03;5113837;28;20035;-68
2021/07/08 00:43:51;;;;;;;14.65;7.38;;;;;;;19.01;56.30;100049.19;5115235;28;20047;-68
2021/07/08 00:46:21;;;;;;;7.78;4.85;;;;;;;18.96;54.32;100033.09;5115052;28;20518;-68
2021/07/08 00:48:47;;;;;;;9.73;6.05;;;;;;;19.06;54.22;100049.16;5097021;28;20047;-68
2021/07/08 00:51:13;;;;;;;8.93;4.90;;;;;;;19.10;53.70;100051.31;5096768;28;20135;-68
2021/07/08 00:53:39;;;;;;;7.15;4.90;;;;;;;19.12;53.31;100041.06;5096890;28;20130;-68
2021/07/08 00:56:06;;;;;;;6.05;4.65;;;;;;;19.14;53.07;100042.38;5114950;28;20043;-68
2021/07/08 00:58:32;;;;;;;7.00;5.00;;;;;;;19.17;53.26;100055.28;5096873;28;20047;-68
2021/07/08 01:00:58;;;;;;;5.43;4.93;;;;;;;19.21;52.92;100050.16;5113513;28;20130;-68
2021/07/08 01:03:25;;;;;;;7.32;4.93;;;;;;;19.27;52.73;100057.91;5113478;28;20056;-68
2021/07/08 01:05:54;;;;;;;9.45;5.25;;;;;;;19.26;52.16;100045.53;5079797;28;20045;-68
2021/07/08 01:08:21;;;;;;;9.10;4.55;;;;;;;19.41;52.14;100060.78;5113734;28;20043;-68
2021/07/08 01:10:49;;;;;;;6.20;4.68;;;;;;;19.52;51.79;100053.44;5113528;28;20055;-68
2021/07/08 01:13:16;;;;;;;7.90;5.05;;;;;;;19.64;51.49;100059.25;5114909;28;20050;-68
2021/07/08 01:15:42;;;;;;;6.20;4.78;;;;;;;19.77;50.74;100054.38;5113349;28;20572;-68
2021/07/08 01:18:09;;;;;;;5.20;4.35;;;;;;;19.91;50.08;100066.06;5096256;28;20389;-68
2021/07/08 01:20:36;;;;;;;6.93;4.20;;;;;;;20.00;49.77;100053.63;5096264;28;20040;-69
2021/07/08 01:23:03;;;;;;;9.18;4.38;;;;;;;20.18;49.44;100058.28;5096465;28;20055;-69
2021/07/08 01:25:35;;;;;;;9.10;4.60;;;;;;;20.35;49.11;100059.72;5113137;28;20496;-68
2021/07/08 01:28:06;;;;;;;6.75;4.93;;;;;;;20.52;49.00;100067.34;5114684;28;20104;-69
2021/07/08 01:30:32;;;;;;;6.40;4.50;;;;;;;20.69;48.53;100059.63;5113500;28;20075;-69
2021/07/08 01:32:59;;;;;;;6.97;4.50;;;;;;;20.86;48.10;100059.94;5079052;28;20051;-68
2021/07/08 01:35:25;;;;;;;5.60;4.50;;;;;;;21.09;47.35;100066.38;5112926;28;20531;-69
2021/07/08 01:37:51;;;;;;;5.55;4.80;;;;;;;21.33;46.45;100073.63;5113052;28;20051;-69
2021/07/08 01:40:18;;;;;;;9.82;5.28;;;;;;;21.59;46.17;100067.84;5114106;28;20389;-68
2021/07/08 01:42:45;;;;;;;5.43;4.25;;;;;;;21.83;45.60;100070.44;5096137;28;20200;-68
2021/07/08 01:45:15;;;;;;;5.85;4.57;;;;;;;22.06;45.02;100074.91;5112637;28;20036;-68
2021/07/08 01:47:42;;;;;;;;;;;;;;;22.33;44.82;100074.16;5096060;28;20481;-69
2021/07/08 01:50:12;;;;;;;8.43;4.78;;;;;;;22.54;43.72;100071.88;5112622;28;19920;-68
2021/07/08 01:52:38;;;;;;;6.30;4.68;;;;;;;22.82;43.02;100066.44;5114081;28;20050;-69
2021/07/08 01:55:04;;;;;;;8.38;5.07;;;;;;;23.07;43.24;100065.94;5114029;28;20048;-69
2021/07/08 01:57:29;;;;;;;6.85;4.60;;;;;;;23.35;42.53;100066.66;5112688;28;20043;-68
2021/07/08 01:59:55;;;;;;;9.55;4.97;;;;;;;23.67;41.88;100067.50;5113788;28;20443;-69
2021/07/08 02:02:21;;;;;;;7.10;4.78;;;;;;;23.94;41.72;100068.50;5112163;28;20536;-69
2021/07/08 02:04:47;;;;;;;12.77;5.40;;;;;;;24.21;41.50;100078.41;5095390;28;20044;-68
2021/07/08 02:07:12;;;;;;;10.32;5.43;;;;;;;24.46;41.21;100072.28;5112421;28;20101;-69
2021/07/08 02:09:38;;;;;;;11.85;5.80;;;;;;;24.72;40.47;100078.91;5113606;28;20044;-68
2021/07/08 02:12:05;;;;;;;13.88;5.95;;;;;;;24.91;40.83;100072.13;5113645;28;20064;-69
2021/07/08 02:14:31;;;;;;;9.40;5.60;;;;;;;25.13;40.30;100068.50;5113578;28;20052;-68
2021/07/08 02:16:56;;;;;;;8.00;5.57;;;;;;;25.40;39.79;100071.22;5095277;28;20420;-68
2021/07/08 02:19:23;;;;;;;8.88;5.55;;;;;;;25.38;40.02;100071.53;5112069;28;20039;-68
2021/07/08 02:21:49;;;;;;;13.48;6.93;;;;;;;25.42;39.97;100067.06;5095198;28;20052;-68
2021/07/08 02:24:14;;;;;;;11.93;6.53;;;;;;;25.41;39.69;100070.88;5095323;28;20135;-68
2021/07/08 02:26:41;;;;;;;11.05;6.07;;;;;;;25.51;39.72;100073.28;5113344;28;20417;-68
2021/07/08 02:29:09;;;;;;;14.30;6.05;;;;;;;25.57;39.87;100076.63;5113129;28;20047;-68
2021/07/08 02:31:35;;;;;;;11.82;5.97;;;;;;;25.68;39.39;100085.22;5113130;28;20100;-68
2021/07/08 02:34:01;;;;;;;9.38;5.30;;;;;;;25.75;38.80;100077.41;5077848;28;20043;-68
2021/07/08 02:36:27;;;;;;;6.57;5.13;;;;;;;25.82;37.93;100083.97;5111725;28;20497;-70
2021/07/08 02:38:53;;;;;;;8.32;5.30;;;;;;;25.85;39.13;100081.72;5111715;28;20056;-70
2021/07/08 02:41:19;;;;;;;9.90;5.35;;;;;;;25.96;38.57;100089.22;5112949;28;20039;-68
2021/07/08 02:43:45;;;;;;;7.43;4.78;;;;;;;25.93;38.59;100097.22;5113387;28;20051;-67
2021/07/08 02:46:10;;;;;;;9.93;5.18;;;;;;;25.79;38.68;100089.22;5094704;28;20048;-69
2021/07/08 02:48:36;;;;;;;8.00;5.10;;;;;;;25.82;38.92;100091.31;5112708;28;20104;-68
2021/07/08 02:51:02;;;;;;;7.63;5.32;;;;;;;25.82;38.81;100100.28;5077621;28;20035;-69
2021/07/08 02:53:28;;;;;;;8.70;5.30;;;;;;;25.96;38.96;100097.34;5112430;28;20497;-68
2021/07/08 02:55:54;;;;;;;9.00;5.43;;;;;;;26.20;38.66;100101.44;5111375;28;20046;-68
2021/07/08 02:58:20;;;;;;;9.95;6.90;;;;;;;26.38;38.89;100092.09;5112279;28;20048;-70
2021/07/08 03:00:47;;;;;;;10.18;5.82;;;;;;;26.74;38.24;100099.03;5111289;28;20125;-69
2021/07/08 03:03:15;;;;;;;9.27;5.90;;;;;;;27.04;37.72;100088.13;5111220;28;20138;-69
2021/07/08 03:05:41;;;;;;;10.15;6.00;;;;;;;27.27;37.47;100099.53;5111505;28;20055;-68
2021/07/08 03:08:07;;;;;;;9.45;6.18;;;;;;;27.48;36.03;100097.56;5112371;28;20066;-68
2021/07/08 03:10:33;;;;;;;12.00;5.13;;;;;;;27.58;35.26;100085.47;5112761;28;20574;-69
2021/07/08 03:12:59;;;;;;;9.48;4.97;;;;;;;27.65;35.48;100085.75;5094001;28;20047;-68
2021/07/08 03:15:26;;;;;;;8.85;4.97;;;;;;;27.70;35.43;100090.97;5111000;28;20032;-68
2021/07/08 03:17:52;;;;;;;9.38;4.93;;;;;;;27.73;35.58;100094.94;5112516;28;20051;-69
2021/07/08 03:20:22;;;;;;;8.02;5.18;;;;;;;27.80;35.85;100092.50;5110887;28;20039;-68
2021/07/08 03:22:49;;;;;;;9.98;4.65;;;;;;;27.90;36.47;100088.56;5111070;28;20092;-69
2021/07/08 03:25:16;;;;;;;8.00;4.75;;;;;;;28.11;36.08;100092.00;5110917;28;20096;-69
2021/07/08 03:27:43;;;;;;;5.47;4.18;;;;;;;28.29;35.27;100082.47;5112382;28;20044;-69
2021/07/08 03:30:11;;;;;;;7.15;3.70;;;;;;;28.51;33.92;100088.69;5110801;28;20580;-69
2021/07/08 03:32:37;;;;;;;6.38;3.58;;;;;;;28.61;32.94;100090.16;5112043;28;20126;-69
2021/07/08 03:35:04;;;;;;;4.82;3.63;;;;;;;28.82;32.57;100090.81;5112150;28;20082;-69
2021/07/08 03:37:30;;;;;;;7.57;3.70;;;;;;;28.95;32.70;100088.88;5093561;28;20050;-68
2021/07/08 03:39:56;;;;;;;8.65;3.50;;;;;;;29.16;32.18;100092.25;5093566;28;20044;-69
2021/07/08 03:42:22;;;;;;;6.97;3.90;;;;;;;29.36;31.97;100090.50;5093637;28;20055;-68
2021/07/08 03:44:48;;;;;;;7.65;3.83;;;;;;;29.27;32.18;100084.38;5110651;28;20035;-68
2021/07/08 03:47:14;;;;;;;4.63;3.97;;;;;;;29.51;31.22;100090.91;5093532;28;20122;-69
2021/07/08 03:49:40;;;;;;;6.85;3.60;;;;;;;29.66;31.25;100098.38;5110484;28;20047;-68
2021/07/08 03:52:06;;;;;;;11.32;3.85;;;;;;;29.81;30.69;100086.69;5110489;28;20437;-68
2021/07/08 03:54:32;;;;;;;7.60;3.60;;;;;;;29.97;30.51;100086.69;5110451;28;20035;-69
2021/07/08 03:56:58;;;;;;;4.55;3.75;;;;;;;30.06;30.41;100098.28;5111864;28;20044;-69
2021/07/08 03:59:24;;;;;;;7.57;4.13;;;;;;;30.09;30.48;100086.63;5093336;28;20042;-69
2021/07/08 04:01:50;;;;;;;5.07;3.65;;;;;;;30.08;30.62;100085.03;5093618;28;20035;-69
2021/07/08 04:04:16;;;;;;;4.45;3.53;;;;;;;30.11;30.72;100092.53;5110225;28;20509;-69
2021/07/08 04:06:42;;;;;;;6.00;3.80;;;;;;;30.12;30.87;100082.41;5093314;28;20123;-69
2021/07/08 04:09:08;;;;;;;6.15;3.90;;;;;;;30.16;31.26;100082.50;5113031;28;20468;-69
2021/07/08 04:11:33;;;;;;;6.57;3.67;;;;;;;30.22;31.17;100089.31;5115677;28;20168;-69
2021/07/08 04:13:59;;;;;;;6.85;3.85;;;;;;;30.24;31.27;100087.81;5114645;28;20096;-70
2021/07/08 04:16:25;;;;;;;6.10;4.45;;;;;;;30.27;31.77;100089.84;5114386;28;20127;-70
2021/07/08 04:18:51;;;;;;;7.72;4.35;;;;;;;30.38;31.77;100092.03;5114596;28;20039;-68
2021/07/08 04:21:16;;;;;;;5.75;4.15;;;;;;;30.45;31.87;100089.50;5114336;28;20116;-71
2021/07/08 04:23:42;;;;;;;13.15;4.50;;;;;;;30.49;31.82;100095.81;5114343;28;20070;-69
2021/07/08 04:26:08;;;;;;;7.85;4.45;;;;;;;30.58;31.61;100101.91;5097156;28;20409;-71
2021/07/08 04:28:34;;;;;;;9.43;4.85;;;;;;;30.64;31.91;100097.75;5115751;28;20048;-69
2021/07/08 04:31:00;;;;;;;7.63;4.50;;;;;;;30.62;32.00;100107.47;5114139;28;20043;-69
2021/07/08 04:33:26;;;;;;;6.85;4.72;;;;;;;30.60;32.27;100107.81;5096714;28;20050;-70
2021/07/08 04:35:52;;;;;;;9.23;4.70;;;;;;;30.73;32.42;100108.50;5080154;28;20130;-70
2021/07/08 04:38:18;;;;;;;7.32;4.63;;;;;;;30.84;32.52;100108.78;5114041;28;20075;-70
2021/07/08 04:40:45;;;;;;;8.07;4.93;;;;;;;30.97;32.39;100112.97;5114047;28;20046;-71
2021/07/08 04:43:12;;;;;;;7.85;4.47;;;;;;;31.06;32.25;100107.31;5079969;28;20048;-71
2021/07/08 04:45:40;;;;;;;7.00;4.70;;;;;;;31.07;32.52;100108.91;5114017;28;20127;-70
2021/07/08 04:48:09;;;;;;;8.88;4.70;;;;;;;31.12;32.48;100108.59;5080078;28;20309;-70
2021/07/08 04:50:35;;;;;;;6.57;5.05;;;;;;;31.02;32.93;100107.22;5079734;28;20040;-69
2021/07/08 04:53:01;;;;;;;7.75;5.05;;;;;;;30.88;33.10;100104.97;5113700;28;20437;-69
2021/07/08 04:55:27;;;;;;;7.13;4.57;;;;;;;30.93;33.37;100110.16;5113795;28;20047;-70
2021/07/08 04:57:55;;;;;;;7.65;4.70;;;;;;;31.12;33.11;100111.34;5115257;28;20077;-70
2021/07/08 05:00:22;;;;;;;14.07;5.50;;;;;;;31.20;32.78;100102.94;5115162;28;20039;-70
2021/07/08 05:02:49;;;;;;;10.43;4.20;;;;;;;31.27;32.28;100112.44;5098100;28;20060;-71
2021/07/08 05:05:16;;;;;;;8.10;5.10;;;;;;;31.36;32.40;100108.38;5113357;28;20527;-71
2021/07/08 05:07:42;;;;;;;7.28;4.55;;;;;;;31.48;32.35;100120.38;5079620;28;20699;-71
2021/07/08 05:10:10;;;;;;;7.38;4.28;;;;;;;31.47;32.00;100114.06;5079603;28;20035;-73
2021/07/08 05:12:36;;;;;;;10.55;4.13;;;;;;;31.35;31.79;100109.53;5114589;28;20149;-70
2021/07/08 05:15:04;;;;;;;8.38;4.05;;;;;;;31.16;32.36;100113.03;5113218;28;20393;-70
2021/07/08 05:17:29;;;;;;;7.57;4.10;;;;;;;30.89;32.77;100109.31;5114712;28;20043;-70
2021/07/08 05:19:56;;;;;;;6.75;4.15;;;;;;;30.67;33.88;100116.19;5113319;28;20386;-69
2021/07/08 05:22:23;;;;;;;7.00;4.78;;;;;;;30.59;34.39;100111.72;5114077;28;20139;-70
2021/07/08 05:24:49;;;;;;;6.00;4.10;;;;;;;30.42;34.45;100114.81;5096285;28;20535;-71
2021/07/08 05:27:16;;;;;;;7.45;4.28;;;;;;;30.25;34.56;100113.22;5114194;28;20135;-69
2021/07/08 05:29:47;;;;;;;6.78;4.57;;;;;;;30.03;34.77;100109.09;5063371;28;20035;-69
2021/07/08 05:32:13;;;;;;;9.57;4.07;;;;;;;29.95;35.33;100121.00;5114460;28;20101;-70
2021/07/08 05:34:42;;;;;;;7.88;4.43;;;;;;;29.81;35.44;100122.22;5113008;28;20083;-69
2021/07/08 05:37:09;;;;;;;5.65;4.20;;;;;;;29.71;35.90;100117.25;5078808;28;20088;-69
2021/07/08 05:39:35;;;;;;;9.50;4.82;;;;;;;29.62;36.69;100122.06;5095765;28;20220;-70
2021/07/08 05:42:03;;;;;;;5.97;4.30;;;;;;;29.47;35.93;100118.09;5112578;28;20066;-70
2021/07/08 05:44:30;;;;;;;5.93;4.32;;;;;;;29.28;35.72;100126.13;5112651;28;20501;-70
2021/07/08 05:46:56;;;;;;;7.25;4.70;;;;;;;29.11;36.98;100122.53;5112700;28;20047;-70
2021/07/08 05:49:22;;;;;;;7.28;4.40;;;;;;;28.98;36.79;100120.94;5095638;28;20047;-69
2021/07/08 05:51:48;;;;;;;6.97;3.97;;;;;;;28.92;36.70;100114.13;5095687;28;20441;-70
2021/07/08 05:54:14;;;;;;;9.65;4.43;;;;;;;28.89;37.35;100117.53;5113574;28;20054;-71
2021/07/08 05:56:40;;;;;;;6.30;4.35;;;;;;;28.80;37.30;100114.94;5112770;28;20042;-69
2021/07/08 05:59:06;;;;;;;6.97;4.22;;;;;;;28.71;37.72;100112.31;5095333;28;20088;-70
2021/07/08 06:01:32;;;;;;;4.78;3.85;;;;;;;28.50;37.79;100103.44;5113655;28;20051;-70
2021/07/08 06:03:58;;;;;;;5.53;4.30;;;;;;;28.62;38.24;100125.28;5112298;28;20055;-69
2021/07/08 06:06:24;;;;;;;6.40;4.45;;;;;;;28.63;38.19;100124.13;5095528;28;20073;-71
2021/07/08 06:08:50;;;;;;;7.82;4.88;;;;;;;28.57;39.48;100117.31;5107988;28;20126;-71
2021/07/08 06:11:16;;;;;;;7.80;4.65;;;;;;;28.56;39.12;100117.63;5094970;28;20035;-70
2021/07/08 06:13:42;;;;;;;5.82;4.38;;;;;;;28.56;39.43;100118.47;5113403;28;20498;-70
2021/07/08 06:16:09;;;;;;;7.38;4.65;;;;;;;28.51;38.76;100121.41;5111648;28;20124;-71
2021/07/08 06:18:36;;;;;;;8.35;4.32;;;;;;;28.50;38.91;100115.16;5113400;28;20040;-71
2021/07/08 06:21:04;;;;;;;8.20;5.15;;;;;;;28.50;39.28;100112.44;5094983;28;20044;-72
2021/07/08 06:23:31;;;;;;;6.85;4.35;;;;;;;28.55;39.51;100110.59;5094514;28;20039;-67
2021/07/08 06:25:57;;;;;;;6.13;4.15;;;;;;;28.55;39.20;100107.88;5094526;28;20116;-70
2021/07/08 06:28:23;;;;;;;9.30;4.35;;;;;;;28.50;39.01;100104.25;5112767;27;20505;-72
2021/07/08 06:30:49;;;;;;;6.60;4.63;;;;;;;28.49;39.30;100108.09;5094489;28;20411;-70
2021/07/08 06:33:15;;;;;;;5.68;4.40;;;;;;;28.44;38.66;100108.34;5110473;28;20184;-72
2021/07/08 06:35:41;;;;;;;8.93;4.65;;;;;;;28.38;39.28;100100.66;5094561;28;20120;-71
2021/07/08 06:38:07;;;;;;;10.27;5.10;;;;;;;28.35;39.41;100102.16;5093957;28;20077;-69
2021/07/08 06:40:33;;;;;;;8.30;4.80;;;;;;;28.44;39.03;100105.63;5111772;28;20523;-68
2021/07/08 06:43:00;;;;;;;7.50;4.45;;;;;;;28.40;38.32;100101.94;5112880;28;20058;-67
2021/07/08 06:45:27;;;;;;;8.48;4.90;;;;;;;28.37;37.91;100104.53;5111220;28;20031;-68
2021/07/08 06:48:02;;;;;;;6.68;4.43;;;;;;;28.37;38.19;100110.78;5110923;28;20096;-68
2021/07/08 06:50:30;;;;;;;7.32;4.47;;;;;;;28.39;38.75;100110.47;5112889;28;20448;-68
2021/07/08 06:52:59;;;;;;;5.00;4.20;;;;;;;28.43;38.35;100109.47;5095916;28;20522;-66
2021/07/08 06:55:25;;;;;;;7.43;5.10;;;;;;;28.51;38.25;100110.50;5090734;28;20051;-67
2021/07/08 06:57:51;;;;;;;10.25;4.90;;;;;;;28.52;37.38;100114.81;5090678;28;20165;-68
2021/07/08 07:00:28;;;;;;;5.10;4.45;;;;;;;28.55;37.75;100116.84;5057492;28;20040;-69
2021/07/08 07:02:57;;;;;;;7.65;5.05;;;;;;;28.60;37.63;100110.38;5090687;28;20056;-68
2021/07/08 07:05:24;;;;;;;7.32;4.80;;;;;;;28.65;37.77;100110.97;5073969;28;20039;-68
2021/07/08 07:07:50;;;;;;;8.90;5.30;;;;;;;28.68;37.75;100115.72;5089909;28;20055;-70
2021/07/08 07:10:17;;;;;;;9.13;5.30;;;;;;;28.68;38.12;100114.94;5073365;28;20089;-72
2021/07/08 07:12:45;;;;;;;7.88;5.47;;;;;;;28.70;38.18;100118.88;5090492;28;20056;-72
2021/07/08 07:15:11;;;;;;;8.05;4.78;;;;;;;28.79;36.02;100117.97;5091592;28;20047;-71
2021/07/08 07:17:38;;;;;;;7.57;5.45;;;;;;;28.79;35.71;100116.03;5073517;28;20079;-68
2021/07/08 07:20:09;;;;;;;7.00;5.10;;;;;;;28.93;34.98;100124.69;5089892;28;20127;-70
2021/07/08 07:22:36;;;;;;;8.82;5.03;;;;;;;29.05;34.65;100112.19;5090724;28;20580;-70
2021/07/08 07:25:06;;;;;;;7.15;4.90;;;;;;;29.24;34.19;100123.31;5073628;28;20509;-67
2021/07/08 07:27:32;;;;;;;6.90;4.80;;;;;;;29.46;33.75;100121.97;5090398;28;20044;-66
2021/07/08 07:30:03;;;;;;;9.65;4.90;;;;;;;29.60;34.37;100122.38;5090392;28;20044;-65
2021/07/08 07:32:30;;;;;;;6.50;4.65;;;;;;;29.73;33.77;100127.81;5091843;28;20046;-69
2021/07/08 07:34:56;;;;;;;8.48;4.18;;;;;;;29.77;32.77;100117.81;5090384;28;20443;-65
2021/07/08 07:37:23;;;;;;;8.95;4.45;;;;;;;29.79;32.62;100118.22;5091497;28;20047;-67
2021/07/08 07:39:49;;;;;;;6.68;4.47;;;;;;;29.81;32.12;100127.66;5103386;28;20036;-69
2021/07/08 07:42:15;;;;;;;4.90;4.15;;;;;;;29.84;31.92;100116.03;5093451;28;20500;-70
2021/07/08 07:44:44;;;;;;;5.32;4.18;;;;;;;29.91;31.77;100118.16;5111073;28;20471;-69
2021/07/08 07:47:11;;;;;;;7.53;4.97;;;;;;;29.95;32.57;100121.81;5111414;28;20134;-65
2021/07/08 07:49:37;;;;;;;6.63;4.55;;;;;;;30.04;30.97;100121.66;5093517;28;20084;-69
2021/07/08 07:52:05;;;;;;;5.32;3.92;;;;;;;30.04;30.69;100118.91;5111625;28;20527;-69
2021/07/08 07:54:33;;;;;;;5.40;4.50;;;;;;;30.03;30.96;100118.13;5109515;28;20051;-69
2021/07/08 07:57:01;;;;;;;10.18;4.38;;;;;;;29.86;30.56;100111.03;5110134;28;20054;-69
2021/07/08 07:59:33;;;;;;;6.82;4.80;;;;;;;29.72;31.36;100118.03;5110010;28;20454;-68
2021/07/08 08:02:01;;;;;;;7.55;4.63;;;;;;;29.63;32.01;100113.53;5109935;28;20052;-69
2021/07/08 08:04:31;;;;;;;6.82;4.40;;;;;;;29.59;32.03;100120.00;5110215;28;20059;-68
2021/07/08 08:09:42;;;;;;;5.90;4.30;;;;;;;29.70;32.13;100107.44;5111415;28;20051;-68
2021/07/08 08:12:10;;;;;;;5.00;4.32;;;;;;;29.70;31.76;100112.13;5093000;28;20124;-68
2021/07/08 08:14:37;;;;;;;6.15;4.55;;;;;;;29.64;31.91;100111.59;5110341;28;20165;-68
2021/07/08 08:17:03;;;;;;;5.30;3.83;;;;;;;29.65;32.25;100113.19;5111853;28;20130;-69
2021/07/08 08:19:29;;;;;;;7.80;4.75;;;;;;;29.65;31.26;100113.97;5109996;28;20512;-68
2021/07/08 08:21:55;;;;;;;10.65;4.45;;;;;;;29.61;31.02;100112.25;5111589;28;20039;-69
2021/07/08 08:24:22;;;;;;;6.18;4.07;;;;;;;29.62;30.91;100114.69;5111318;28;20040;-68
2021/07/08 08:26:51;;;;;;;4.72;4.15;;;;;;;29.80;30.93;100120.63;5111334;28;20088;-68
2021/07/08 08:29:19;;;;;;;4.88;4.20;;;;;;;29.86;31.98;100110.25;5109929;28;20040;-70
2021/07/08 08:31:44;;;;;;;20.50;4.95;;;;;;;30.01;32.18;100104.00;5093247;28;20516;-68
2021/07/08 08:34:10;;;;;;;6.80;4.60;;;;;;;30.08;32.51;100101.44;5104271;28;20047;-69
2021/07/08 08:36:37;;;;;;;6.47;4.50;;;;;;;30.16;31.27;100113.38;5105195;28;20047;-69
2021/07/08 08:39:03;;;;;;;6.93;4.40;;;;;;;30.26;32.17;100112.84;5108787;28;20433;-69
2021/07/08 08:41:32;;;;;;;9.55;4.63;;;;;;;30.42;31.51;100117.56;5095367;28;20075;-68
2021/07/08 08:43:58;;;;;;;10.68;4.72;;;;;;;30.57;31.32;100114.00;5087613;28;20052;-68
2021/07/08 08:46:24;;;;;;;7.07;4.55;;;;;;;30.62;30.26;100112.94;5054937;28;20054;-69
2021/07/08 08:48:51;;;;;;;8.30;4.60;;;;;;;30.63;30.28;100106.31;5069551;28;20105;-69
2021/07/08 08:51:17;;;;;;;8.23;4.53;;;;;;;30.41;30.35;100111.25;5068615;28;20040;-69
2021/07/08 08:53:43;;;;;;;7.25;4.43;;;;;;;30.37;30.44;100112.34;5068679;28;20135;-69
2021/07/08 08:56:11;;;;;;;8.32;4.45;;;;;;;30.37;30.62;100113.13;5089040;28;20122;-69
2021/07/08 08:58:39;;;;;;;7.18;4.13;;;;;;;30.10;30.66;100103.84;5058244;28;20426;-69
2021/07/08 09:01:07;;;;;;;5.95;4.50;;;;;;;30.09;31.83;100104.97;5111785;28;20048;-71
2021/07/08 09:03:34;;;;;;;8.07;4.30;;;;;;;29.87;31.90;100101.69;5113717;28;20055;-68
2021/07/08 09:06:06;;;;;;;8.88;4.40;;;;;;;29.63;32.00;100097.13;5109637;28;20079;-70
2021/07/08 09:08:34;;;;;;;6.25;4.50;;;;;;;29.47;32.28;100104.44;5093420;28;20422;-69
2021/07/08 09:11:23;;;;;;;6.25;4.85;;;;;;;29.51;32.21;100099.88;5109202;28;20050;-69
2021/07/08 09:14:02;;;;;;;7.68;4.50;;;;;;;29.49;32.49;100104.91;5102642;28;20577;-70
2021/07/08 09:16:32;;;;;;;7.35;4.78;;;;;;;29.29;32.75;100097.69;5112035;28;20511;-69
2021/07/08 09:19:11;;;;;;;7.65;4.75;;;;;;;29.21;32.34;100096.69;5112979;28;20063;-69
2021/07/08 09:21:44;;;;;;;10.57;4.40;;;;;;;29.09;32.29;100099.44;5110753;28;20043;-69
2021/07/08 09:24:32;;;;;;;6.75;4.38;;;;;;;28.86;33.88;100093.66;5093547;28;20035;-68
2021/07/08 09:26:59;;;;;;;11.70;4.72;;;;;;;28.77;32.71;100096.50;5093188;28;20044;-68
2021/07/08 09:29:27;;;;;;;7.13;4.47;;;;;;;28.74;32.25;100095.25;5111057;27;20605;-68
2021/07/08 09:31:58;;;;;;;6.35;4.38;;;;;;;28.62;32.28;100092.53;5109137;28;20053;-69
2021/07/08 09:34:26;;;;;;;5.47;4.10;;;;;;;28.56;32.43;100091.19;5074608;28;20070;-70
2021/07/08 09:37:09;;;;;;;6.53;4.38;;;;;;;28.49;31.79;100097.19;5091870;28;20091;-69
2021/07/08 09:39:40;;;;;;;5.05;4.03;;;;;;;28.49;31.78;100091.72;5109196;28;20039;-70
2021/07/08 09:42:06;;;;;;;7.90;4.43;;;;;;;28.61;32.03;100087.41;5110662;28;20088;-69
2021/07/08 09:44:34;;;;;;;6.20;4.38;;;;;;;28.78;31.35;100086.38;5093675;28;20498;-69
2021/07/08 09:47:00;;;;;;;9.18;4.20;;;;;;;28.91;31.21;100086.00;5112007;28;20067;-69
2021/07/08 09:49:28;;;;;;;6.53;4.43;;;;;;;29.02;31.32;100075.47;5110934;28;20512;-69
2021/07/08 09:51:54;;;;;;;7.57;4.57;;;;;;;29.06;31.98;100081.84;5107741;28;20103;-69
2021/07/08 09:57:32;;;;;;;8.70;4.63;;;;;;;29.22;31.95;100064.72;5110261;28;20047;-69
2021/07/08 09:59:59;;;;;;;7.32;4.43;;;;;;;29.31;32.37;100060.69;5111261;28;20040;-70
2021/07/08 10:02:30;;;;;;;9.15;5.05;;;;;;;29.32;32.85;100066.94;5075599;28;20554;-70
2021/07/08 10:04:58;;;;;;;6.18;4.45;;;;;;;29.25;32.32;100062.09;5090907;28;20179;-69
2021/07/08 10:07:24;;;;;;;6.63;4.28;;;;;;;29.33;32.19;100068.56;5091318;28;20071;-69
2021/07/08 10:09:50;;;;;;;7.30;4.18;;;;;;;29.43;32.45;100055.19;5109608;28;20044;-68
2021/07/08 10:12:17;;;;;;;7.30;4.47;;;;;;;29.37;32.47;100069.44;5106902;28;20470;-69
2021/07/08 10:14:43;;;;;;;10.55;4.78;;;;;;;29.27;31.75;100067.19;5091030;28;20078;-67
2021/07/08 10:17:10;;;;;;;7.57;4.60;;;;;;;29.10;31.29;100065.56;5109963;28;20084;-69
2021/07/08 10:19:39;;;;;;;6.57;5.05;;;;;;;29.19;31.04;100061.53;5082221;28;20483;-69
2021/07/08 10:22:10;;;;;;;5.45;4.07;;;;;;;29.17;31.09;100058.34;5072391;28;20067;-69
2021/07/08 10:24:37;;;;;;;5.10;4.47;;;;;;;29.13;31.39;100062.94;5088496;28;20046;-68
2021/07/08 10:27:03;;;;;;;6.72;4.38;;;;;;;28.91;31.67;100063.38;5087469;28;20040;-68
2021/07/08 10:29:30;;;;;;;7.10;4.45;;;;;;;28.77;32.35;100069.22;5088979;28;20069;-68
2021/07/08 10:31:57;;;;;;;5.63;4.10;;;;;;;28.78;32.32;100064.56;5089340;28;20044;-69
2021/07/08 10:34:23;;;;;;;7.60;4.00;;;;;;;28.98;32.82;100063.63;5069260;28;20048;-68
2021/07/08 10:36:54;;;;;;;5.43;4.50;;;;;;;29.08;33.07;100063.16;5069195;28;20047;-70
2021/07/08 10:39:22;;;;;;;8.13;4.70;;;;;;;29.21;31.78;100063.94;5086101;28;20566;-70
2021/07/08 10:41:52;;;;;;;5.15;4.03;;;;;;;29.37;31.59;100058.53;5086104;28;20055;-71
2021/07/08 10:44:39;;;;;;;10.52;5.57;;;;;;;29.54;31.66;100044.56;5087096;28;20044;-69
2021/07/08 10:47:45;;;;;;;9.77;5.30;;;;;;;29.68;32.35;100043.38;5087686;28;20039;-69
2021/07/08 10:50:36;;;;;;;7.63;4.40;;;;;;;29.69;32.25;100047.72;5068283;28;20044;-69
2021/07/08 10:53:34;;;;;;;8.05;4.63;;;;;;;29.74;31.37;100045.53;5090879;28;20025;-71
2021/07/08 10:56:12;;;;;;;;;;;;;;;29.77;30.94;100050.28;5043176;28;20040;-70
2021/07/08 10:58:58;;;;;;;7.38;4.55;;;;;;;29.85;31.43;100040.31;5072871;28;20335;-69
2021/07/08 11:01:52;;;;;;;9.82;4.30;;;;;;;29.97;30.57;100051.16;5049631;28;20048;-69
2021/07/08 11:05:00;;;;;;;4.95;4.30;;;;;;;30.02;30.28;100042.72;5039084;28;20090;-70
2021/07/08 11:07:27;;;;;;;4.50;4.00;;;;;;;30.05;30.97;100038.47;5052086;28;20858;-68
2021/07/08 11:10:01;;;;;;;5.28;4.22;;;;;;;30.05;30.54;100043.94;5052616;28;20286;-70
2021/07/08 11:12:34;;;;;;;6.25;4.53;;;;;;;29.99;30.35;100035.22;5050836;28;20040;-70
2021/07/08 11:15:00;;;;;;;5.13;3.60;;;;;;;29.97;30.09;100039.44;5083847;28;20036;-72
2021/07/08 11:17:37;;;;;;;4.93;4.20;;;;;;;29.93;29.70;100033.09;5066489;28;20044;-69
2021/07/08 11:20:31;;;;;;;6.00;4.20;;;;;;;29.78;32.24;100042.88;5049904;28;20045;-69
2021/07/08 11:23:40;;;;;;;7.80;4.70;;;;;;;29.47;31.28;100036.16;5067387;28;20052;-70
2021/07/08 11:26:08;;;;;;;7.67;3.90;;;;;;;29.23;31.30;100034.34;5083751;28;20059;-70
2021/07/08 11:28:34;;;;;;;7.00;4.40;;;;;;;29.14;31.81;100039.94;5066301;28;20044;-69
2021/07/08 11:31:02;;;;;;;4.78;4.00;;;;;;;29.16;32.22;100026.75;5082498;28;20143;-70
2021/07/08 11:33:30;;;;;;;8.70;4.93;;;;;;;29.30;32.29;100031.03;5066727;28;20052;-69
2021/07/08 11:35:57;;;;;;;6.70;3.97;;;;;;;29.40;32.32;100020.38;5065625;28;20079;-70